Time;durP1;ratioP1;P1;durP2;ratioP2;P2;SDS_P1;SDS_P2;PMS_P1;PMS_P2;Temp;Humidity;BMP_temperature;BMP_pressure;BME280_temperature;BME280_humidity;BME280_pressure;Samples;Min_cycle;Max_cycle;Signal;HPM_P1;HPM_P2
2021/09/10 00:02:15;;;;;;;23.85;13.35;;;;;;;12.61;70.11;101166.77;1834225;78;21019;-91
2021/09/10 00:04:42;;;;;;;23.67;12.45;;;;;;;12.59;70.17;101159.23;1833963;78;22595;-91
2021/09/10 00:07:08;;;;;;;20.68;13.18;;;;;;;12.58;70.22;101161.84;1834083;78;21159;-91
2021/09/10 00:09:35;;;;;;;21.40;12.73;;;;;;;12.55;70.31;101159.99;1837956;77;20995;-91
2021/09/10 00:12:02;;;;;;;14.83;12.05;;;;;;;12.53;70.38;101159.06;1839582;77;21011;-91
2021/09/10 00:14:29;;;;;;;24.02;13.75;;;;;;;12.51;70.44;101161.22;1839689;78;20988;-91
2021/09/10 00:16:55;;;;;;;21.33;13.28;;;;;;;12.49;70.56;101166.46;1839642;77;21734;-91
2021/09/10 00:19:22;;;;;;;16.67;12.45;;;;;;;12.47;70.48;101160.25;1839432;78;20948;-90
2021/09/10 00:21:49;;;;;;;18.82;12.63;;;;;;;12.44;70.61;101159.77;1839463;78;21026;-92
2021/09/10 00:24:15;;;;;;;20.68;12.40;;;;;;;12.41;70.67;101159.68;1839150;77;21003;-92
2021/09/10 00:26:42;;;;;;;21.73;12.18;;;;;;;12.40;70.75;101164.91;1839573;77;21042;-91
2021/09/10 00:29:09;;;;;;;20.92;12.60;;;;;;;12.37;70.82;101162.19;1838916;78;21754;-92
2021/09/10 00:31:35;;;;;;;21.23;12.20;;;;;;;12.36;70.90;101164.38;1839635;77;20995;-92
2021/09/10 00:34:02;;;;;;;20.45;12.82;;;;;;;12.32;70.94;101163.41;1839840;78;21484;-92
2021/09/10 00:36:29;;;;;;;18.15;11.88;;;;;;;12.30;70.94;101160.28;1839982;78;21063;-92
2021/09/10 00:38:56;;;;;;;16.52;12.28;;;;;;;12.23;71.00;101151.30;1839835;78;21014;-92
2021/09/10 00:41:22;;;;;;;26.75;12.55;;;;;;;12.22;71.11;101150.86;1838874;77;22590;-83
2021/09/10 00:43:49;;;;;;;25.90;12.45;;;;;;;12.22;71.24;101160.98;1838597;78;21584;-82
2021/09/10 00:46:15;;;;;;;15.20;11.65;;;;;;;12.19;71.25;101154.30;1838777;78;20987;-82
2021/09/10 00:48:42;;;;;;;15.72;12.10;;;;;;;12.18;71.31;101156.89;1838762;78;21027;-83
2021/09/10 00:51:09;;;;;;;22.37;12.75;;;;;;;12.17;71.41;101156.44;1838998;78;21585;-82
2021/09/10 00:53:36;;;;;;;17.40;13.05;;;;;;;12.16;71.50;101155.96;1831617;78;21750;-82
2021/09/10 00:56:03;;;;;;;17.98;12.00;;;;;;;12.16;71.60;101158.20;1811871;79;21030;-82
2021/09/10 00:58:29;;;;;;;24.23;12.78;;;;;;;12.17;71.60;101159.97;1812188;79;21122;-90
2021/09/10 01:00:56;;;;;;;17.62;12.18;;;;;;;12.15;71.60;101156.39;1803617;78;21032;-82
2021/09/10 01:03:23;;;;;;;16.65;11.97;;;;;;;12.13;71.64;101155.47;1795442;79;21604;-82
2021/09/10 01:05:50;;;;;;;15.40;11.70;;;;;;;12.11;71.69;101157.62;1795633;79;21720;-82
2021/09/10 01:08:16;;;;;;;19.37;12.23;;;;;;;12.08;71.80;101154.45;1795516;79;21032;-82
2021/09/10 01:10:45;;;;;;;20.43;12.07;;;;;;;12.05;71.84;101159.23;1795735;79;21110;-82
2021/09/10 01:13:12;;;;;;;29.15;13.70;;;;;;;12.01;71.87;101159.10;1795738;79;21059;-90
2021/09/10 01:15:39;;;;;;;19.35;12.63;;;;;;;11.98;71.88;101159.05;1796533;79;21046;-92
2021/09/10 01:18:06;;;;;;;18.70;12.43;;;;;;;11.95;71.90;101161.59;1796519;79;21796;-92
2021/09/10 01:20:33;;;;;;;19.05;12.28;;;;;;;11.92;71.98;101161.50;1795702;79;20984;-82
2021/09/10 01:22:59;;;;;;;16.77;12.37;;;;;;;11.90;72.06;101157.53;1796505;79;21019;-92
2021/09/10 01:25:26;;;;;;;20.57;13.00;;;;;;;11.89;72.10;101156.13;1796516;79;21024;-91
2021/09/10 01:27:57;;;;;;;21.95;13.53;;;;;;;11.86;72.18;101150.33;1796721;79;21725;-91
2021/09/10 01:30:31;;;;;;;22.37;13.35;;;;;;;11.85;72.28;101156.47;1796565;79;22571;-91
2021/09/10 01:32:59;;;;;;;17.12;12.85;;;;;;;11.82;72.31;101155.06;1796785;79;20980;-89
2021/09/10 01:35:25;;;;;;;18.15;12.13;;;;;;;11.81;72.41;101154.18;1796666;78;21082;-90
2021/09/10 01:37:54;;;;;;;21.52;12.13;;;;;;;11.80;72.43;101158.97;1796775;79;21565;-91
2021/09/10 01:40:21;;;;;;;14.70;12.00;;;;;;;11.78;72.45;101155.84;1796766;79;21052;-92
2021/09/10 01:42:48;;;;;;;17.65;12.23;;;;;;;11.74;72.47;101154.86;1796166;78;21724;-82
2021/09/10 01:45:14;;;;;;;24.67;12.00;;;;;;;11.74;72.54;101157.50;1795843;79;20983;-89
2021/09/10 01:47:41;;;;;;;20.75;11.28;;;;;;;11.73;72.54;101156.13;1796366;79;21587;-82
2021/09/10 01:50:11;;;;;;;18.37;11.65;;;;;;;11.70;72.60;101158.27;1795896;79;21128;-91
2021/09/10 01:52:38;;;;;;;21.45;11.88;;;;;;;11.68;72.70;101159.55;1796597;79;21019;-92
2021/09/10 01:55:06;;;;;;;18.15;11.10;;;;;;;11.66;72.73;101161.25;1796369;78;21736;-92
2021/09/10 01:57:33;;;;;;;16.50;11.63;;;;;;;11.66;72.75;101155.09;1796065;79;20992;-92
2021/09/10 01:59:59;;;;;;;16.30;11.35;;;;;;;11.64;72.83;101159.00;1800857;79;21047;-91
2021/09/10 02:02:26;;;;;;;16.55;11.53;;;;;;;11.64;72.91;101163.39;1812526;78;21568;-91
2021/09/10 02:04:53;;;;;;;15.55;11.35;;;;;;;11.62;72.99;101158.51;1812560;79;21004;-91
2021/09/10 02:07:20;;;;;;;18.07;11.75;;;;;;;11.58;72.97;101156.21;1812415;79;21750;-81
2021/09/10 02:09:46;;;;;;;17.48;11.78;;;;;;;11.57;73.10;101166.70;1812442;79;20971;-91
2021/09/10 02:12:13;;;;;;;14.58;11.12;;;;;;;11.55;73.05;101163.14;1812883;79;21046;-91
2021/09/10 02:14:40;;;;;;;15.32;11.53;;;;;;;11.53;72.96;101160.89;1812891;79;21061;-91
2021/09/10 02:17:06;;;;;;;18.55;11.20;;;;;;;11.50;72.88;101166.06;1812850;79;21500;-90
2021/09/10 02:19:33;;;;;;;15.85;11.40;;;;;;;11.46;72.94;101163.33;1812694;79;21775;-90
2021/09/10 02:22:00;;;;;;;17.17;12.00;;;;;;;11.44;72.95;101161.52;1812659;78;21485;-91
2021/09/10 02:24:26;;;;;;;15.08;11.95;;;;;;;11.42;73.14;101164.10;1812290;79;21086;-81
2021/09/10 02:26:53;;;;;;;16.27;11.83;;;;;;;11.40;73.18;101163.60;1811643;79;21547;-82
2021/09/10 02:29:20;;;;;;;14.25;11.48;;;;;;;11.39;73.34;101153.89;1811979;79;21006;-91
2021/09/10 02:31:46;;;;;;;19.65;11.40;;;;;;;11.38;73.38;101167.94;1812466;79;21560;-92
2021/09/10 02:34:13;;;;;;;22.15;12.35;;;;;;;11.36;73.40;101163.94;1811789;79;21599;-91
2021/09/10 02:36:40;;;;;;;18.20;12.45;;;;;;;11.34;73.43;101156.41;1811756;79;21086;-91
2021/09/10 02:39:08;;;;;;;16.20;10.88;;;;;;;11.32;73.49;101155.48;1811952;78;20987;-92
2021/09/10 02:41:35;;;;;;;16.10;11.45;;;;;;;11.31;73.50;101157.63;1812396;78;20972;-92
2021/09/10 02:44:05;;;;;;;18.35;12.37;;;;;;;11.30;73.59;101153.23;1812410;78;22577;-92
2021/09/10 02:46:31;;;;;;;20.92;12.10;;;;;;;11.29;73.69;101148.80;1812470;79;21011;-92
2021/09/10 02:48:58;;;;;;;16.57;11.78;;;;;;;11.31;73.75;101150.16;1812609;79;21031;-90
2021/09/10 02:51:25;;;;;;;19.50;11.93;;;;;;;11.28;73.73;101150.98;1812422;79;21007;-90
2021/09/10 02:53:53;;;;;;;23.10;11.10;;;;;;;11.24;73.67;101150.39;1812222;79;36277;-91
2021/09/10 02:56:19;;;;;;;16.90;12.05;;;;;;;11.20;73.59;101148.53;1812641;78;22580;-91
2021/09/10 02:58:46;;;;;;;15.90;11.50;;;;;;;11.17;73.65;101151.98;1812487;79;21027;-92
2021/09/10 03:01:13;;;;;;;18.17;11.90;;;;;;;11.15;73.64;101146.17;1812181;79;21042;-91
2021/09/10 03:03:39;;;;;;;16.23;11.00;;;;;;;11.12;73.81;101147.42;1812192;79;21037;-91
2021/09/10 03:06:06;;;;;;;16.20;11.48;;;;;;;11.09;73.84;101146.49;1812305;78;21043;-91
2021/09/10 03:08:33;;;;;;;14.20;11.75;;;;;;;11.07;73.98;101149.91;1812654;79;22479;-91
2021/09/10 03:10:59;;;;;;;17.02;10.95;;;;;;;10.99;74.19;101137.83;1812624;79;20999;-90
2021/09/10 03:13:26;;;;;;;22.27;11.38;;;;;;;11.08;74.08;101145.13;1812564;79;21085;-91
2021/09/10 03:15:53;;;;;;;18.92;11.15;;;;;;;11.05;74.05;101148.97;1812736;79;21051;-91
2021/09/10 03:18:19;;;;;;;15.13;11.00;;;;;;;11.04;74.22;101148.09;1812685;79;20991;-92
2021/09/10 03:20:46;;;;;;;17.10;11.12;;;;;;;11.03;74.23;101151.98;1812366;79;21734;-91
2021/09/10 03:23:12;;;;;;;18.80;11.57;;;;;;;11.00;74.19;101146.22;1812528;79;21082;-92
2021/09/10 03:25:39;;;;;;;14.73;11.35;;;;;;;10.98;74.22;101150.95;1812534;79;21030;-92
2021/09/10 03:28:06;;;;;;;17.60;11.88;;;;;;;10.95;74.27;101145.61;1812590;79;21051;-91
2021/09/10 03:30:32;;;;;;;16.48;10.93;;;;;;;10.94;74.44;101142.50;1812239;79;21651;-82
2021/09/10 03:32:59;;;;;;;16.37;11.97;;;;;;;10.93;74.44;101144.25;1811812;79;21740;-82
2021/09/10 03:35:26;;;;;;;15.05;11.48;;;;;;;10.91;74.46;101140.67;1812096;79;20995;-91
2021/09/10 03:37:52;;;;;;;15.38;10.95;;;;;;;10.90;74.53;101141.51;1812516;78;21050;-90
2021/09/10 03:40:19;;;;;;;15.65;11.20;;;;;;;10.88;74.57;101137.94;1812477;79;21007;-90
2021/09/10 03:42:46;;;;;;;17.00;11.65;;;;;;;10.83;74.51;101128.59;1812677;79;21110;-90
2021/09/10 03:45:12;;;;;;;15.68;10.58;;;;;;;10.83;74.54;101135.58;1812565;79;21736;-81
2021/09/10 03:47:39;;;;;;;17.75;11.78;;;;;;;10.81;74.53;101131.61;1811756;78;21046;-81
2021/09/10 03:50:06;;;;;;;15.30;10.80;;;;;;;10.78;74.53;101132.83;1811868;78;20983;-90
2021/09/10 03:52:40;;;;;;;16.90;11.12;;;;;;;10.76;74.60;101133.20;1810893;79;21097;-89
2021/09/10 03:55:10;;;;;;;;;;;;;;;10.76;74.71;101133.20;1815437;78;21508;-90
2021/09/10 03:57:37;;;;;;;16.05;11.00;;;;;;;10.76;74.81;101128.37;1812694;79;21808;-89
2021/09/10 04:00:08;;;;;;;13.60;11.18;;;;;;;10.73;74.73;101133.09;1811649;78;21255;-90
2021/09/10 04:02:36;;;;;;;16.05;10.48;;;;;;;10.72;74.75;101133.97;1807179;79;20999;-92
2021/09/10 04:05:04;;;;;;;14.07;10.72;;;;;;;10.70;74.62;101139.18;1799404;79;21131;-93
2021/09/10 04:08:03;;;;;;;20.30;11.97;;;;;;;10.67;74.63;101140.82;1796787;79;21576;-93
2021/09/10 04:10:54;;;;;;;20.75;10.80;;;;;;;10.66;74.68;101141.25;1764316;79;21514;-93
2021/09/10 04:13:42;;;;;;;32.50;12.25;;;;;;;10.65;74.75;101136.81;1783001;79;21023;-92
2021/09/10 04:16:19;;;;;;;39.73;12.98;;;;;;;10.66;74.88;101140.34;1765657;79;21007;-92
2021/09/10 04:19:21;;;;;;;42.03;12.78;;;;;;;10.68;74.94;101141.30;1768733;79;21016;-93
2021/09/10 04:21:34;;;;;;;37.58;11.73;;;;;;;10.70;75.04;101145.76;1730771;79;21059;-91
2021/09/10 04:30:03;;;;;;;;;;;;;;;;;;;;;
2021/09/10 04:32:56;;;;;;;25.57;12.37;;;;;;;10.87;75.01;101130.91;1394755;101;21149;-91
2021/09/10 04:35:27;;;;;;;22.35;12.75;;;;;;;10.98;75.16;101136.47;1414495;100;21196;-89
2021/09/10 04:37:56;;;;;;;22.45;12.82;;;;;;;11.13;75.33;101134.70;1417668;101;22730;-96
2021/09/10 04:40:22;;;;;;;26.10;12.28;;;;;;;11.88;76.62;101135.47;1411539;101;21143;-88
2021/09/10 04:42:49;;;;;;;23.70;12.78;;;;;;;12.96;76.37;101131.41;1411260;101;21214;-89
2021/09/10 04:45:16;;;;;;;22.37;12.88;;;;;;;14.02;75.39;101127.28;1418725;100;21104;-90
2021/09/10 04:47:43;;;;;;;25.00;12.33;;;;;;;15.05;74.36;101130.16;1397558;102;21120;-89
2021/09/10 04:50:10;;;;;;;20.12;12.73;;;;;;;16.03;73.33;101131.27;1415088;100;21896;-89
2021/09/10 04:52:38;;;;;;;18.40;12.88;;;;;;;17.00;72.06;101123.05;1417626;100;21231;-83
2021/09/10 04:55:07;;;;;;;24.12;13.32;;;;;;;17.89;70.58;101126.00;1410840;101;21195;-86
2021/09/10 04:57:34;;;;;;;54.13;13.93;;;;;;;18.73;69.14;101131.72;1410891;101;21171;-88
2021/09/10 05:00:01;;;;;;;42.95;13.95;;;;;;;19.48;68.03;101128.31;1411061;101;21725;-88
2021/09/10 05:02:28;;;;;;;31.20;12.45;;;;;;;20.15;66.55;101129.19;1404106;101;21816;-87
2021/09/10 05:04:54;;;;;;;32.90;12.58;;;;;;;20.30;65.09;101125.95;1456008;97;21196;-85
2021/09/10 05:07:21;;;;;;;29.23;12.05;;;;;;;19.98;63.17;101125.33;1694288;82;21098;-83
2021/09/10 05:09:48;;;;;;;34.00;13.40;;;;;;;19.41;62.31;101130.14;1741546;82;21098;-87
2021/09/10 05:12:15;;;;;;;29.35;12.20;;;;;;;18.87;61.98;101137.03;1740969;82;21094;-84
2021/09/10 05:14:42;;;;;;;18.70;10.90;;;;;;;18.36;61.79;101129.56;1717578;82;21786;-89
2021/09/10 05:17:10;;;;;;;18.20;11.80;;;;;;;17.87;61.98;101119.80;1741145;82;21026;-89
2021/09/10 05:19:37;;;;;;;21.25;12.07;;;;;;;17.52;62.21;101124.56;1741137;82;21015;-89
2021/09/10 05:22:04;;;;;;;22.58;12.13;;;;;;;17.21;62.35;101125.82;1741248;82;21596;-89
2021/09/10 05:24:30;;;;;;;22.48;13.18;;;;;;;16.96;62.73;101131.45;1716493;82;21634;-91
2021/09/10 05:26:57;;;;;;;28.85;12.80;;;;;;;16.76;63.04;101128.69;1741262;82;21740;-89
2021/09/10 05:29:23;;;;;;;21.27;13.25;;;;;;;16.62;63.29;101134.34;1741399;82;21094;-90
2021/09/10 05:31:50;;;;;;;24.52;13.25;;;;;;;16.47;63.56;101136.46;1741471;82;21538;-89
2021/09/10 05:34:17;;;;;;;38.65;14.15;;;;;;;16.33;63.71;101139.91;1741338;82;21039;-90
2021/09/10 05:36:43;;;;;;;27.30;13.80;;;;;;;16.25;63.79;101143.38;1741229;82;21110;-90
2021/09/10 05:39:10;;;;;;;26.12;13.62;;;;;;;16.16;64.04;101141.97;1740687;82;21773;-90
2021/09/10 05:41:37;;;;;;;26.70;13.70;;;;;;;16.05;64.24;101137.91;1740724;82;21086;-90
2021/09/10 05:44:04;;;;;;;24.70;13.88;;;;;;;15.97;64.30;101149.77;1740599;82;21508;-90
2021/09/10 05:46:30;;;;;;;28.60;16.12;;;;;;;15.88;64.43;101151.92;1740618;82;21110;-90
2021/09/10 05:48:57;;;;;;;22.82;14.33;;;;;;;15.80;64.47;101147.40;1740744;82;21046;-90
2021/09/10 05:51:24;;;;;;;22.17;14.93;;;;;;;15.70;64.61;101149.92;1740417;82;22547;-90
2021/09/10 05:53:50;;;;;;;25.95;15.00;;;;;;;15.60;64.69;101151.13;1740924;82;21008;-90
2021/09/10 05:56:17;;;;;;;35.58;15.98;;;;;;;15.51;64.94;101148.84;1741333;82;21085;-91
2021/09/10 05:58:44;;;;;;;31.20;14.73;;;;;;;15.45;65.05;101155.41;1740734;82;21142;-90
2021/09/10 06:01:10;;;;;;;31.57;16.07;;;;;;;15.41;65.27;101152.28;1737325;81;21153;-91
2021/09/10 06:03:37;;;;;;;33.67;15.10;;;;;;;15.40;65.44;101154.46;1728977;82;22043;-90
2021/09/10 06:06:06;;;;;;;29.50;16.65;;;;;;;15.42;65.64;101146.52;1728967;82;21098;-90
2021/09/10 06:08:32;;;;;;;33.60;15.70;;;;;;;15.45;65.88;101154.53;1774515;79;21039;-90
2021/09/10 06:10:59;;;;;;;27.13;15.00;;;;;;;15.48;65.99;101154.55;1799242;79;21082;-90
2021/09/10 06:13:26;;;;;;;28.15;15.43;;;;;;;15.50;66.03;101153.71;1799060;79;20973;-84
2021/09/10 06:15:52;;;;;;;34.73;15.60;;;;;;;15.53;66.21;101159.48;1799070;79;21671;-84
2021/09/10 06:18:19;;;;;;;24.23;15.32;;;;;;;15.60;66.35;101155.11;1798924;79;21008;-84
2021/09/10 06:20:46;;;;;;;34.73;15.90;;;;;;;15.67;66.45;101156.55;1799084;79;20983;-84
2021/09/10 06:23:12;;;;;;;28.10;16.35;;;;;;;15.69;66.44;101161.43;1799454;79;20988;-90
2021/09/10 06:25:39;;;;;;;25.88;14.95;;;;;;;15.75;66.47;101161.97;1799655;79;21000;-90
2021/09/10 06:28:08;;;;;;;30.77;15.83;;;;;;;15.80;66.63;101156.69;1799572;79;21713;-90
2021/09/10 06:30:34;;;;;;;34.48;15.55;;;;;;;15.84;66.63;101156.75;1799441;79;21009;-90
2021/09/10 06:33:01;;;;;;;26.62;15.45;;;;;;;15.92;66.74;101156.83;1799381;79;21004;-90
2021/09/10 06:35:28;;;;;;;24.45;15.30;;;;;;;15.98;66.79;101156.88;1799308;79;21039;-84
2021/09/10 06:37:54;;;;;;;27.58;15.20;;;;;;;16.03;66.79;101160.47;1798976;79;21164;-84
2021/09/10 06:40:21;;;;;;;31.10;15.32;;;;;;;16.09;66.76;101152.99;1799073;79;21895;-90
2021/09/10 06:42:50;;;;;;;24.67;15.80;;;;;;;16.16;66.79;101151.27;1799459;79;21055;-90
2021/09/10 06:45:16;;;;;;;22.85;15.28;;;;;;;16.23;66.89;101156.63;1799555;79;21086;-91
2021/09/10 06:47:43;;;;;;;21.97;16.23;;;;;;;16.33;66.95;101160.28;1799428;79;21151;-90
2021/09/10 06:50:11;;;;;;;25.45;17.02;;;;;;;16.43;66.96;101159.91;1799430;79;21051;-90
2021/09/10 06:52:41;;;;;;;24.87;15.60;;;;;;;16.49;66.73;101159.49;1799572;79;22573;-90
2021/09/10 06:55:09;;;;;;;32.83;17.37;;;;;;;16.55;66.67;101159.98;1799460;79;20996;-90
2021/09/10 06:57:35;;;;;;;28.25;17.42;;;;;;;16.62;66.66;101157.81;1799532;79;21045;-91
2021/09/10 07:00:06;;;;;;;36.70;24.98;;;;;;;16.70;66.62;101155.20;1799582;79;21470;-91
2021/09/10 07:02:33;;;;;;;27.07;16.82;;;;;;;16.78;66.56;101158.82;1800036;78;21104;-91
2021/09/10 07:05:00;;;;;;;21.10;15.93;;;;;;;16.87;66.61;101164.64;1796121;79;21848;-91
2021/09/10 07:07:26;;;;;;;24.75;16.40;;;;;;;16.98;66.57;101168.25;1796410;79;21023;-90
2021/09/10 07:09:53;;;;;;;30.17;17.15;;;;;;;17.07;66.60;101174.07;1796487;79;21009;-90
2021/09/10 07:12:20;;;;;;;25.05;17.07;;;;;;;17.15;66.66;101172.33;1796472;79;20960;-91
2021/09/10 07:14:46;;;;;;;28.98;19.25;;;;;;;17.26;66.55;101173.71;1796597;79;21477;-91
2021/09/10 07:17:13;;;;;;;30.45;18.82;;;;;;;17.35;66.51;101170.20;1796525;79;22541;-91
2021/09/10 07:19:40;;;;;;;31.85;17.50;;;;;;;17.43;66.39;101169.78;1796407;79;21035;-91
2021/09/10 07:22:07;;;;;;;27.30;19.50;;;;;;;17.49;66.38;101172.04;1796422;79;21556;-84
2021/09/10 07:24:33;;;;;;;30.75;20.32;;;;;;;17.56;66.16;101166.27;1795921;78;21664;-84
2021/09/10 07:27:00;;;;;;;22.62;16.82;;;;;;;17.60;66.14;101165.39;1795797;79;21003;-84
2021/09/10 07:29:27;;;;;;;25.90;18.25;;;;;;;17.68;66.19;101174.31;1796526;79;21730;-90
2021/09/10 07:31:54;;;;;;;29.07;16.48;;;;;;;17.78;66.12;101178.33;1796330;79;21020;-91
2021/09/10 07:34:21;;;;;;;30.05;17.42;;;;;;;17.84;66.07;101169.92;1795965;79;21556;-84
2021/09/10 07:36:52;;;;;;;33.23;18.23;;;;;;;17.94;66.04;101171.27;1796055;79;21035;-84
2021/09/10 07:39:20;;;;;;;25.80;17.73;;;;;;;18.03;65.99;101173.49;1795885;78;21030;-84
2021/09/10 07:41:47;;;;;;;26.40;16.12;;;;;;;18.11;65.97;101166.84;1795869;79;22504;-85
2021/09/10 07:44:15;;;;;;;26.33;15.72;;;;;;;18.22;65.90;101172.18;1796408;79;21624;-91
2021/09/10 07:46:42;;;;;;;32.50;18.52;;;;;;;18.32;65.75;101171.31;1796462;79;21039;-91
2021/09/10 07:49:09;;;;;;;24.37;17.27;;;;;;;18.42;65.72;101172.19;1796108;78;21090;-84
2021/09/10 07:51:36;;;;;;;29.10;15.80;;;;;;;18.54;65.58;101172.61;1795985;78;21035;-90
2021/09/10 07:54:06;;;;;;;25.82;14.45;;;;;;;18.64;65.34;101169.06;1795885;79;21700;-91
2021/09/10 07:56:32;;;;;;;21.50;13.83;;;;;;;18.76;65.25;101176.14;1796265;79;21004;-91
2021/09/10 07:58:59;;;;;;;23.38;14.40;;;;;;;18.88;65.15;101176.13;1796389;79;21079;-91
2021/09/10 08:01:26;;;;;;;25.23;13.62;;;;;;;19.00;64.98;101178.78;1799075;78;21521;-85
2021/09/10 08:03:52;;;;;;;22.52;14.07;;;;;;;19.11;64.66;101181.42;1809955;78;21058;-84
2021/09/10 08:06:19;;;;;;;22.27;14.20;;;;;;;19.22;64.61;101182.27;1804780;79;21703;-85
2021/09/10 08:08:46;;;;;;;21.40;13.45;;;;;;;19.34;64.27;101176.44;1811777;78;21540;-85
2021/09/10 08:11:12;;;;;;;23.55;13.70;;;;;;;19.39;63.96;101180.86;1812200;79;21046;-85
2021/09/10 08:13:40;;;;;;;20.88;13.05;;;;;;;19.48;63.81;101179.03;1812161;79;21149;-85
2021/09/10 08:16:08;;;;;;;18.45;12.53;;;;;;;19.58;63.91;101182.11;1812142;79;21054;-85
2021/09/10 08:18:35;;;;;;;23.80;15.68;;;;;;;19.68;63.67;101178.48;1812125;79;21817;-84
2021/09/10 08:21:02;;;;;;;25.48;14.23;;;;;;;19.76;63.54;101178.05;1812577;79;21525;-91
2021/09/10 08:23:28;;;;;;;19.48;14.25;;;;;;;19.87;63.45;101181.08;1812416;79;21050;-85
2021/09/10 08:25:55;;;;;;;22.87;15.25;;;;;;;19.94;63.10;101178.81;1811895;78;21082;-85
2021/09/10 08:28:22;;;;;;;22.32;14.45;;;;;;;20.02;63.02;101180.97;1812331;78;21038;-91
2021/09/10 08:30:48;;;;;;;20.23;12.78;;;;;;;20.10;62.91;101176.47;1812379;78;21744;-85
2021/09/10 08:33:15;;;;;;;20.48;13.22;;;;;;;20.18;62.88;101173.28;1811874;78;21074;-85
2021/09/10 08:35:42;;;;;;;17.20;12.37;;;;;;;20.27;62.55;101175.00;1811911;78;21808;-85
2021/09/10 08:38:08;;;;;;;25.23;13.03;;;;;;;20.37;62.58;101170.45;1811975;79;22153;-85
2021/09/10 08:40:35;;;;;;;30.43;12.13;;;;;;;20.49;62.40;101170.79;1812170;79;21070;-85
2021/09/10 08:43:02;;;;;;;16.70;12.00;;;;;;;20.58;62.04;101172.05;1812165;79;21767;-85
2021/09/10 08:45:29;;;;;;;18.30;13.03;;;;;;;20.68;62.09;101163.50;1812020;79;21090;-85
2021/09/10 08:47:56;;;;;;;21.25;12.13;;;;;;;20.76;61.95;101167.01;1812254;78;20995;-85
2021/09/10 08:50:23;;;;;;;18.10;12.30;;;;;;;20.84;61.84;101160.23;1812204;78;21023;-83
2021/09/10 08:52:51;;;;;;;22.40;12.33;;;;;;;20.92;61.76;101169.92;1812082;78;21453;-85
2021/09/10 08:55:18;;;;;;;22.02;12.33;;;;;;;21.02;61.43;101163.13;1789658;79;22633;-85
2021/09/10 08:57:47;;;;;;;18.32;11.08;;;;;;;21.09;61.16;101163.50;1812218;79;20983;-85
2021/09/10 09:00:15;;;;;;;16.67;10.85;;;;;;;21.18;60.94;101162.52;1811491;79;21066;-85
2021/09/10 09:02:41;;;;;;;18.20;11.53;;;;;;;21.29;60.90;101160.59;1811795;79;21653;-85
2021/09/10 09:05:09;;;;;;;15.88;10.72;;;;;;;21.40;60.70;101161.77;1811886;79;21551;-85
2021/09/10 09:07:38;;;;;;;15.72;10.30;;;;;;;21.49;60.52;101161.25;1812311;79;21923;-85
2021/09/10 09:10:06;;;;;;;22.13;11.18;;;;;;;21.60;60.46;101162.87;1790229;79;20976;-84
2021/09/10 09:12:32;;;;;;;17.60;12.00;;;;;;;21.69;60.25;101160.95;1812149;79;21004;-83
2021/09/10 09:15:02;;;;;;;24.67;10.38;;;;;;;21.79;59.99;101163.49;1812014;78;21010;-84
2021/09/10 09:17:39;;;;;;;16.42;9.30;;;;;;;21.88;59.76;101165.57;1812203;78;20991;-83
2021/09/10 09:20:15;;;;;;;17.55;10.13;;;;;;;21.96;59.61;101161.89;1789517;79;22407;-83
2021/09/10 09:23:10;;;;;;;20.37;9.78;;;;;;;22.05;59.42;101159.08;1808079;79;21046;-84
2021/09/10 09:25:42;;;;;;;16.55;9.13;;;;;;;22.18;59.07;101162.45;1812174;79;21023;-83
2021/09/10 09:28:30;;;;;;;10.40;7.62;;;;;;;22.28;58.67;101162.31;1812147;78;21031;-84
2021/09/10 09:31:04;;;;;;;12.33;7.28;;;;;;;22.36;58.17;101165.31;1812175;78;21085;-83
2021/09/10 09:33:40;;;;;;;12.00;6.87;;;;;;;22.45;57.77;101166.50;1811611;79;21929;-83
2021/09/10 09:36:11;;;;;;;14.35;7.12;;;;;;;22.63;57.15;101166.14;1812159;79;21560;-84
2021/09/10 09:38:39;;;;;;;22.55;8.10;;;;;;;22.63;57.15;101166.14;1812413;78;21646;-83
2021/09/10 09:41:18;;;;;;;15.43;8.03;;;;;;;22.83;56.82;101159.53;1812216;79;20975;-83
2021/09/10 09:43:48;;;;;;;14.43;7.53;;;;;;;22.83;56.82;101159.53;1791753;79;21151;-83
2021/09/10 09:46:21;;;;;;;16.05;7.97;;;;;;;22.94;56.75;101166.92;1811380;79;21762;-84
2021/09/10 09:48:49;;;;;;;15.68;8.65;;;;;;;23.02;56.53;101164.08;1811595;79;21022;-84
2021/09/10 09:51:20;;;;;;;19.30;8.15;;;;;;;23.09;56.30;101157.25;1812035;79;21110;-84
2021/09/10 09:53:47;;;;;;;19.45;8.33;;;;;;;23.17;56.17;101158.89;1812040;78;21043;-84
2021/09/10 09:56:13;;;;;;;15.15;8.78;;;;;;;23.14;56.20;101132.97;1811978;79;21110;-84
2021/09/10 09:58:42;;;;;;;17.48;8.30;;;;;;;23.35;56.00;101151.80;1812104;79;21733;-84
2021/09/10 10:01:12;;;;;;;18.05;9.58;;;;;;;23.44;55.83;101153.38;1812164;79;21046;-84
2021/09/10 10:03:40;;;;;;;9.95;7.22;;;;;;;23.52;55.59;101157.23;1811937;78;21073;-84
2021/09/10 10:06:25;;;;;;;16.12;7.85;;;;;;;23.58;55.39;101153.09;1811863;79;21300;-85
2021/09/10 10:09:02;;;;;;;13.18;7.97;;;;;;;23.64;55.23;101145.75;1812362;79;21109;-85
2021/09/10 10:11:49;;;;;;;15.23;7.67;;;;;;;23.71;55.04;101149.67;1788863;79;21049;-85
2021/09/10 10:14:37;;;;;;;17.85;8.00;;;;;;;23.78;54.83;101148.58;1812542;79;21109;-85
2021/09/10 10:17:04;;;;;;;11.38;7.20;;;;;;;23.83;54.51;101152.08;1812156;79;21556;-84
2021/09/10 10:19:38;;;;;;;13.75;6.80;;;;;;;23.91;54.34;101146.52;1812046;79;21014;-84
2021/09/10 10:22:08;;;;;;;12.63;7.10;;;;;;;23.98;54.14;101139.61;1812107;78;21042;-84
2021/09/10 10:24:54;;;;;;;18.12;7.00;;;;;;;24.08;53.84;101142.95;1811875;78;22589;-84
2021/09/10 10:27:40;;;;;;;8.83;6.72;;;;;;;24.15;53.58;101140.53;1812138;78;20995;-84
2021/09/10 10:30:21;;;;;;;12.75;6.25;;;;;;;24.25;53.54;101143.42;1812209;79;21031;-84
2021/09/10 10:32:50;;;;;;;11.60;6.62;;;;;;;24.34;53.08;101142.76;1812290;79;21034;-84
2021/09/10 10:35:27;;;;;;;13.13;6.15;;;;;;;24.40;52.89;101140.80;1812251;79;21050;-84
2021/09/10 10:38:11;;;;;;;20.68;6.40;;;;;;;24.47;52.34;101137.47;1812175;79;21813;-84
2021/09/10 10:40:44;;;;;;;13.45;5.72;;;;;;;24.53;52.18;101140.06;1812179;79;21047;-84
2021/09/10 10:43:24;;;;;;;6.75;5.30;;;;;;;24.59;52.02;101137.66;1811865;78;21066;-85
2021/09/10 10:46:05;;;;;;;7.58;5.85;;;;;;;24.64;51.84;101135.70;1811928;79;21038;-84
2021/09/10 10:48:44;;;;;;;9.40;5.80;;;;;;;24.68;51.62;101137.38;1812181;78;21054;-84
2021/09/10 10:51:22;;;;;;;8.15;5.05;;;;;;;24.74;51.37;101130.50;1812232;78;21744;-85
2021/09/10 10:53:58;;;;;;;12.88;5.30;;;;;;;24.81;50.92;101132.55;1812130;78;21586;-84
2021/09/10 10:56:34;;;;;;;7.87;5.62;;;;;;;24.87;50.90;101124.31;1812175;78;20992;-84
2021/09/10 10:59:19;;;;;;;10.45;5.67;;;;;;;24.93;50.69;101124.13;1812064;79;21007;-84
2021/09/10 11:02:36;;;;;;;15.43;5.92;;;;;;;24.99;50.31;101127.11;1812148;79;20984;-85
2021/09/10 11:05:19;;;;;;;19.87;9.28;;;;;;;25.03;50.13;101121.57;1811817;79;22882;-84
2021/09/10 11:07:45;;;;;;;;;;;;;;;25.10;49.79;101116.03;1814428;78;20987;-85
2021/09/10 11:10:15;;;;;;;13.28;5.33;;;;;;;25.14;49.49;101114.53;1812284;79;20569;-85
2021/09/10 11:12:44;;;;;;;9.78;5.08;;;;;;;25.20;49.10;101118.85;1812233;78;21105;-85
2021/09/10 11:15:29;;;;;;;10.60;6.70;;;;;;;25.21;49.14;101113.42;1812295;79;21004;-85
2021/09/10 11:18:05;;;;;;;10.72;4.70;;;;;;;25.26;49.00;101114.65;1812245;79;21821;-84
2021/09/10 11:20:46;;;;;;;14.43;5.60;;;;;;;25.31;48.73;101118.57;1812297;78;21085;-84
2021/09/10 11:23:18;;;;;;;10.95;4.83;;;;;;;25.34;48.60;101119.36;1812182;78;21023;-85
2021/09/10 11:25:49;;;;;;;6.72;5.65;;;;;;;25.42;48.55;101115.08;1812168;78;21234;-85
2021/09/10 11:28:17;;;;;;;13.13;6.17;;;;;;;25.47;48.39;101118.52;1812060;78;21074;-85